METAR Data
IDs: Format: Raw Decoded Include TAF

Data at: 0213 UTC 24 Oct 2019

METAR for:KADU (Audubon Cnty Arpt, IA, US)
Text:KADU 240155Z AUTO 34004KT 10SM SCT027 OVC042 04/03 A3013 RMK AO2
Temperature: 4.0°C ( 39°F)
Dewpoint: 3.0°C ( 37°F) [RH = 93%]
Pressure (altimeter):30.13 inches Hg (1020.4 mb)
Winds:from the NNW (340 degrees) at 5 MPH (4 knots; 2.1 m/s)
Visibility:10 or more sm (16+ km)
Ceiling:4200 feet AGL
Clouds: scattered clouds at 2700 feet AGL, overcast cloud deck at 4200 feet AGL
QC Flag:automated observation with no human augmentation